College Hill, Ohio
Current Conditions -  °F | °C
As of 1:53 AM on Thursday 23 Oct 2014 (Local Time) from KLUK Reporting Station
Overcast Overcast  
Wind Chill: 45°   Ceiling: 3200
Heat Index: 45°   Visibility: 10mi
Dew Point: 42°   Wind: 0mph
Humidity: 90%   Direction: NA
Pressure: 30.27"   Gusts: NA
Location:  39.2009°N, 84.5322°W
Report Text: KLUK 230553Z AUTO 00000KT 10SM OVC032 07/06 A3027 RMK AO2 SLP252 T00720056 10106 20072 55006
Loading
Personal Weather Stations






























Interactive Weather Map
Tropical Storm Tracking
New forecast layout! Learn more

10-Day Weather Forecast

Advertisements
Track Severe Weather on mobile